sensor_id;sensor_type;location;lat;lon;timestamp;P1;durP1;ratioP1;P2;durP2;ratioP2
72559;SDS011;62987;52.382;9.752;2023-12-20T00:01:56;13.98;;;6.07;;
72559;SDS011;62987;52.382;9.752;2023-12-20T00:04:24;14.45;;;4.85;;
72559;SDS011;62987;52.382;9.752;2023-12-20T00:06:53;13.82;;;4.72;;
72559;SDS011;62987;52.382;9.752;2023-12-20T00:09:21;12.05;;;4.95;;
72559;SDS011;62987;52.382;9.752;2023-12-20T00:11:50;12.82;;;5.07;;
72559;SDS011;62987;52.382;9.752;2023-12-20T00:14:18;11.02;;;4.28;;
72559;SDS011;62987;52.382;9.752;2023-12-20T00:16:48;11.90;;;4.72;;
72559;SDS011;62987;52.382;9.752;2023-12-20T00:19:16;12.13;;;4.53;;
72559;SDS011;62987;52.382;9.752;2023-12-20T00:21:45;11.95;;;4.55;;
72559;SDS011;62987;52.382;9.752;2023-12-20T00:24:13;15.23;;;4.30;;
72559;SDS011;62987;52.382;9.752;2023-12-20T00:26:41;7.72;;;3.75;;
72559;SDS011;62987;52.382;9.752;2023-12-20T00:29:10;8.93;;;3.38;;
72559;SDS011;62987;52.382;9.752;2023-12-20T00:31:38;9.77;;;3.55;;
72559;SDS011;62987;52.382;9.752;2023-12-20T00:34:08;8.90;;;3.65;;
72559;SDS011;62987;52.382;9.752;2023-12-20T00:36:37;7.18;;;2.90;;
72559;SDS011;62987;52.382;9.752;2023-12-20T00:39:05;8.75;;;3.67;;
72559;SDS011;62987;52.382;9.752;2023-12-20T00:41:34;10.50;;;3.00;;
72559;SDS011;62987;52.382;9.752;2023-12-20T00:44:02;8.55;;;2.88;;
72559;SDS011;62987;52.382;9.752;2023-12-20T00:46:31;8.45;;;3.30;;
72559;SDS011;62987;52.382;9.752;2023-12-20T00:48:59;12.55;;;3.60;;
72559;SDS011;62987;52.382;9.752;2023-12-20T00:51:29;8.55;;;3.60;;
72559;SDS011;62987;52.382;9.752;2023-12-20T00:53:57;11.27;;;3.38;;
72559;SDS011;62987;52.382;9.752;2023-12-20T00:56:26;10.88;;;3.42;;
72559;SDS011;62987;52.382;9.752;2023-12-20T00:58:54;10.75;;;3.05;;
72559;SDS011;62987;52.382;9.752;2023-12-20T01:01:22;12.27;;;2.83;;
72559;SDS011;62987;52.382;9.752;2023-12-20T01:03:51;8.48;;;2.95;;
72559;SDS011;62987;52.382;9.752;2023-12-20T01:06:19;8.98;;;2.65;;
72559;SDS011;62987;52.382;9.752;2023-12-20T01:08:49;12.70;;;3.10;;
72559;SDS011;62987;52.382;9.752;2023-12-20T01:11:18;9.52;;;2.83;;
72559;SDS011;62987;52.382;9.752;2023-12-20T01:13:46;10.80;;;2.28;;
72559;SDS011;62987;52.382;9.752;2023-12-20T01:16:14;8.20;;;2.30;;
72559;SDS011;62987;52.382;9.752;2023-12-20T01:18:43;7.78;;;2.63;;
72559;SDS011;62987;52.382;9.752;2023-12-20T01:21:12;5.85;;;1.95;;
72559;SDS011;62987;52.382;9.752;2023-12-20T01:23:40;5.95;;;2.03;;
72559;SDS011;62987;52.382;9.752;2023-12-20T01:26:10;10.93;;;2.25;;
72559;SDS011;62987;52.382;9.752;2023-12-20T01:28:38;8.75;;;1.95;;
72559;SDS011;62987;52.382;9.752;2023-12-20T01:31:07;7.25;;;2.20;;
72559;SDS011;62987;52.382;9.752;2023-12-20T01:33:36;11.40;;;2.28;;
72559;SDS011;62987;52.382;9.752;2023-12-20T01:36:05;14.40;;;2.95;;
72559;SDS011;62987;52.382;9.752;2023-12-20T01:38:33;5.93;;;2.13;;
72559;SDS011;62987;52.382;9.752;2023-12-20T01:41:02;6.13;;;2.25;;
72559;SDS011;62987;52.382;9.752;2023-12-20T01:43:32;4.82;;;1.65;;
72559;SDS011;62987;52.382;9.752;2023-12-20T01:46:16;9.77;;;2.03;;
72559;SDS011;62987;52.382;9.752;2023-12-20T01:48:45;11.25;;;2.35;;
72559;SDS011;62987;52.382;9.752;2023-12-20T01:51:13;8.95;;;2.10;;
72559;SDS011;62987;52.382;9.752;2023-12-20T01:53:42;8.20;;;1.60;;
72559;SDS011;62987;52.382;9.752;2023-12-20T01:56:11;6.53;;;1.60;;
72559;SDS011;62987;52.382;9.752;2023-12-20T01:58:43;4.53;;;1.60;;
72559;SDS011;62987;52.382;9.752;2023-12-20T02:01:12;7.63;;;2.40;;
72559;SDS011;62987;52.382;9.752;2023-12-20T02:03:41;9.73;;;1.60;;
72559;SDS011;62987;52.382;9.752;2023-12-20T02:06:10;4.65;;;1.75;;
72559;SDS011;62987;52.382;9.752;2023-12-20T02:08:39;6.15;;;1.60;;
72559;SDS011;62987;52.382;9.752;2023-12-20T02:11:07;8.40;;;1.67;;
72559;SDS011;62987;52.382;9.752;2023-12-20T02:13:34;8.35;;;1.85;;
72559;SDS011;62987;52.382;9.752;2023-12-20T02:16:05;9.05;;;2.15;;
72559;SDS011;62987;52.382;9.752;2023-12-20T02:18:34;6.55;;;2.00;;
72559;SDS011;62987;52.382;9.752;2023-12-20T02:21:03;11.88;;;2.33;;
72559;SDS011;62987;52.382;9.752;2023-12-20T02:23:34;5.47;;;1.50;;
72559;SDS011;62987;52.382;9.752;2023-12-20T02:26:02;5.22;;;1.52;;
72559;SDS011;62987;52.382;9.752;2023-12-20T02:28:31;4.00;;;1.58;;
72559;SDS011;62987;52.382;9.752;2023-12-20T02:31:00;11.57;;;2.03;;
72559;SDS011;62987;52.382;9.752;2023-12-20T02:33:28;8.70;;;1.92;;
72559;SDS011;62987;52.382;9.752;2023-12-20T02:35:57;9.50;;;2.28;;
72559;SDS011;62987;52.382;9.752;2023-12-20T02:38:25;8.65;;;1.60;;
72559;SDS011;62987;52.382;9.752;2023-12-20T02:40:55;4.53;;;1.48;;
72559;SDS011;62987;52.382;9.752;2023-12-20T02:43:23;10.98;;;2.10;;
72559;SDS011;62987;52.382;9.752;2023-12-20T02:45:51;7.40;;;1.08;;
72559;SDS011;62987;52.382;9.752;2023-12-20T02:48:20;7.93;;;2.58;;
72559;SDS011;62987;52.382;9.752;2023-12-20T02:50:48;11.80;;;2.88;;
72559;SDS011;62987;52.382;9.752;2023-12-20T02:53:17;9.80;;;2.75;;
72559;SDS011;62987;52.382;9.752;2023-12-20T02:55:45;6.80;;;2.42;;
72559;SDS011;62987;52.382;9.752;2023-12-20T02:58:15;9.65;;;2.25;;
72559;SDS011;62987;52.382;9.752;2023-12-20T03:00:44;8.77;;;2.33;;
72559;SDS011;62987;52.382;9.752;2023-12-20T03:03:13;8.18;;;1.67;;
72559;SDS011;62987;52.382;9.752;2023-12-20T03:05:41;10.00;;;1.90;;
72559;SDS011;62987;52.382;9.752;2023-12-20T03:08:09;5.45;;;1.65;;
72559;SDS011;62987;52.382;9.752;2023-12-20T03:10:38;6.40;;;2.42;;
72559;SDS011;62987;52.382;9.752;2023-12-20T03:13:06;6.47;;;2.00;;
72559;SDS011;62987;52.382;9.752;2023-12-20T03:15:36;6.35;;;1.70;;
72559;SDS011;62987;52.382;9.752;2023-12-20T03:18:05;5.40;;;1.48;;
72559;SDS011;62987;52.382;9.752;2023-12-20T03:20:33;12.52;;;2.22;;
72559;SDS011;62987;52.382;9.752;2023-12-20T03:23:02;4.53;;;1.15;;
72559;SDS011;62987;52.382;9.752;2023-12-20T03:25:33;6.38;;;1.98;;
72559;SDS011;62987;52.382;9.752;2023-12-20T03:28:02;1.52;;;0.73;;
72559;SDS011;62987;52.382;9.752;2023-12-20T03:30:30;5.45;;;1.20;;
72559;SDS011;62987;52.382;9.752;2023-12-20T03:33:00;7.30;;;1.35;;
72559;SDS011;62987;52.382;9.752;2023-12-20T03:35:29;6.45;;;1.63;;
72559;SDS011;62987;52.382;9.752;2023-12-20T03:37:58;4.05;;;1.23;;
72559;SDS011;62987;52.382;9.752;2023-12-20T03:40:27;7.82;;;1.27;;
72559;SDS011;62987;52.382;9.752;2023-12-20T03:42:55;11.70;;;1.17;;
72559;SDS011;62987;52.382;9.752;2023-12-20T03:45:23;7.28;;;1.38;;
72559;SDS011;62987;52.382;9.752;2023-12-20T03:47:52;4.15;;;0.85;;
72559;SDS011;62987;52.382;9.752;2023-12-20T03:50:24;8.48;;;2.20;;
72559;SDS011;62987;52.382;9.752;2023-12-20T03:52:53;7.30;;;0.90;;
72559;SDS011;62987;52.382;9.752;2023-12-20T03:55:21;5.63;;;1.20;;
72559;SDS011;62987;52.382;9.752;2023-12-20T03:57:49;0.85;;;0.20;;
72559;SDS011;62987;52.382;9.752;2023-12-20T04:00:18;3.38;;;0.73;;
72559;SDS011;62987;52.382;9.752;2023-12-20T04:02:46;7.28;;;1.40;;
72559;SDS011;62987;52.382;9.752;2023-12-20T04:05:14;3.47;;;1.13;;
72559;SDS011;62987;52.382;9.752;2023-12-20T04:07:44;2.17;;;0.70;;
72559;SDS011;62987;52.382;9.752;2023-12-20T04:10:13;5.90;;;1.20;;
72559;SDS011;62987;52.382;9.752;2023-12-20T04:12:42;2.30;;;1.10;;
72559;SDS011;62987;52.382;9.752;2023-12-20T04:15:10;5.78;;;1.23;;
72559;SDS011;62987;52.382;9.752;2023-12-20T04:17:38;5.45;;;1.27;;
72559;SDS011;62987;52.382;9.752;2023-12-20T04:20:07;3.17;;;0.63;;
72559;SDS011;62987;52.382;9.752;2023-12-20T04:22:36;4.22;;;1.38;;
72559;SDS011;62987;52.382;9.752;2023-12-20T04:25:06;3.92;;;1.13;;
72559;SDS011;62987;52.382;9.752;2023-12-20T04:27:35;2.13;;;0.90;;
72559;SDS011;62987;52.382;9.752;2023-12-20T04:30:04;7.38;;;1.30;;
72559;SDS011;62987;52.382;9.752;2023-12-20T04:32:34;3.28;;;1.13;;
72559;SDS011;62987;52.382;9.752;2023-12-20T04:35:03;3.65;;;1.20;;
72559;SDS011;62987;52.382;9.752;2023-12-20T04:37:32;4.18;;;1.15;;
72559;SDS011;62987;52.382;9.752;2023-12-20T04:40:00;9.48;;;2.33;;
72559;SDS011;62987;52.382;9.752;2023-12-20T04:42:31;5.22;;;1.20;;
72559;SDS011;62987;52.382;9.752;2023-12-20T04:44:59;7.05;;;1.58;;
72559;SDS011;62987;52.382;9.752;2023-12-20T04:47:28;5.03;;;1.10;;
72559;SDS011;62987;52.382;9.752;2023-12-20T04:49:56;8.93;;;1.48;;
72559;SDS011;62987;52.382;9.752;2023-12-20T04:52:25;3.22;;;1.48;;
72559;SDS011;62987;52.382;9.752;2023-12-20T04:54:53;5.78;;;1.48;;
72559;SDS011;62987;52.382;9.752;2023-12-20T04:57:22;6.38;;;1.52;;
72559;SDS011;62987;52.382;9.752;2023-12-20T04:59:51;6.47;;;1.42;;
72559;SDS011;62987;52.382;9.752;2023-12-20T05:02:20;10.65;;;1.35;;
72559;SDS011;62987;52.382;9.752;2023-12-20T05:04:48;10.57;;;1.90;;
72559;SDS011;62987;52.382;9.752;2023-12-20T05:07:19;7.05;;;2.05;;
72559;SDS011;62987;52.382;9.752;2023-12-20T05:09:48;3.10;;;1.10;;
72559;SDS011;62987;52.382;9.752;2023-12-20T05:12:16;6.90;;;1.30;;
72559;SDS011;62987;52.382;9.752;2023-12-20T05:14:44;4.70;;;1.30;;
72559;SDS011;62987;52.382;9.752;2023-12-20T05:17:16;10.73;;;1.55;;
72559;SDS011;62987;52.382;9.752;2023-12-20T05:19:44;4.18;;;1.30;;
72559;SDS011;62987;52.382;9.752;2023-12-20T05:22:12;6.88;;;1.60;;
72559;SDS011;62987;52.382;9.752;2023-12-20T05:24:41;3.17;;;1.25;;
72559;SDS011;62987;52.382;9.752;2023-12-20T05:27:09;9.27;;;2.15;;
72559;SDS011;62987;52.382;9.752;2023-12-20T05:29:37;8.45;;;2.05;;
72559;SDS011;62987;52.382;9.752;2023-12-20T05:32:06;6.47;;;1.80;;
72559;SDS011;62987;52.382;9.752;2023-12-20T05:34:36;5.45;;;1.70;;
72559;SDS011;62987;52.382;9.752;2023-12-20T05:37:04;7.78;;;1.67;;
72559;SDS011;62987;52.382;9.752;2023-12-20T05:39:33;7.30;;;2.05;;
72559;SDS011;62987;52.382;9.752;2023-12-20T05:42:01;7.93;;;2.03;;
72559;SDS011;62987;52.382;9.752;2023-12-20T05:44:29;7.68;;;2.17;;
72559;SDS011;62987;52.382;9.752;2023-12-20T05:46:58;7.57;;;2.08;;
72559;SDS011;62987;52.382;9.752;2023-12-20T05:49:26;7.53;;;2.35;;
72559;SDS011;62987;52.382;9.752;2023-12-20T05:51:56;12.00;;;3.10;;
72559;SDS011;62987;52.382;9.752;2023-12-20T05:54:24;6.07;;;2.25;;
72559;SDS011;62987;52.382;9.752;2023-12-20T05:56:52;4.03;;;1.85;;
72559;SDS011;62987;52.382;9.752;2023-12-20T05:59:21;7.10;;;1.80;;
72559;SDS011;62987;52.382;9.752;2023-12-20T06:01:49;13.38;;;1.75;;
72559;SDS011;62987;52.382;9.752;2023-12-20T06:04:17;4.50;;;1.85;;
72559;SDS011;62987;52.382;9.752;2023-12-20T06:06:49;9.63;;;2.65;;
72559;SDS011;62987;52.382;9.752;2023-12-20T06:09:19;7.43;;;1.77;;
72559;SDS011;62987;52.382;9.752;2023-12-20T06:11:47;9.32;;;1.98;;
72559;SDS011;62987;52.382;9.752;2023-12-20T06:14:15;8.93;;;1.85;;
72559;SDS011;62987;52.382;9.752;2023-12-20T06:16:44;8.23;;;2.05;;
72559;SDS011;62987;52.382;9.752;2023-12-20T06:19:13;5.28;;;1.75;;
72559;SDS011;62987;52.382;9.752;2023-12-20T06:21:42;8.68;;;2.53;;
72559;SDS011;62987;52.382;9.752;2023-12-20T06:24:11;7.75;;;1.90;;
72559;SDS011;62987;52.382;9.752;2023-12-20T06:26:41;5.20;;;2.17;;
72559;SDS011;62987;52.382;9.752;2023-12-20T06:29:09;7.65;;;1.83;;
72559;SDS011;62987;52.382;9.752;2023-12-20T06:31:37;8.50;;;2.10;;
72559;SDS011;62987;52.382;9.752;2023-12-20T06:34:06;7.32;;;2.22;;
72559;SDS011;62987;52.382;9.752;2023-12-20T06:36:34;5.97;;;2.22;;
72559;SDS011;62987;52.382;9.752;2023-12-20T06:39:03;6.82;;;2.20;;
72559;SDS011;62987;52.382;9.752;2023-12-20T06:41:31;10.05;;;2.05;;
72559;SDS011;62987;52.382;9.752;2023-12-20T06:44:01;9.38;;;2.15;;
72559;SDS011;62987;52.382;9.752;2023-12-20T06:46:29;10.10;;;2.95;;
72559;SDS011;62987;52.382;9.752;2023-12-20T06:49:17;8.95;;;2.40;;
72559;SDS011;62987;52.382;9.752;2023-12-20T06:52:06;9.98;;;2.20;;
72559;SDS011;62987;52.382;9.752;2023-12-20T06:54:45;9.88;;;2.10;;
72559;SDS011;62987;52.382;9.752;2023-12-20T06:57:16;7.53;;;2.63;;
72559;SDS011;62987;52.382;9.752;2023-12-20T06:59:51;8.73;;;1.80;;
72559;SDS011;62987;52.382;9.752;2023-12-20T07:02:28;13.60;;;1.83;;
72559;SDS011;62987;52.382;9.752;2023-12-20T07:04:57;8.15;;;2.40;;
72559;SDS011;62987;52.382;9.752;2023-12-20T07:07:31;6.60;;;1.60;;
72559;SDS011;62987;52.382;9.752;2023-12-20T07:10:16;7.18;;;2.22;;
72559;SDS011;62987;52.382;9.752;2023-12-20T07:12:45;7.35;;;2.17;;
72559;SDS011;62987;52.382;9.752;2023-12-20T07:15:21;4.18;;;1.52;;
72559;SDS011;62987;52.382;9.752;2023-12-20T07:17:53;8.35;;;2.28;;
72559;SDS011;62987;52.382;9.752;2023-12-20T07:20:21;10.02;;;2.13;;
72559;SDS011;62987;52.382;9.752;2023-12-20T07:22:50;7.57;;;2.28;;
72559;SDS011;62987;52.382;9.752;2023-12-20T07:25:18;4.97;;;1.40;;
72559;SDS011;62987;52.382;9.752;2023-12-20T07:27:47;12.45;;;2.47;;
72559;SDS011;62987;52.382;9.752;2023-12-20T07:30:17;10.60;;;1.92;;
72559;SDS011;62987;52.382;9.752;2023-12-20T07:32:46;7.57;;;2.30;;
72559;SDS011;62987;52.382;9.752;2023-12-20T07:35:15;7.70;;;2.35;;
72559;SDS011;62987;52.382;9.752;2023-12-20T07:37:44;12.35;;;2.70;;
72559;SDS011;62987;52.382;9.752;2023-12-20T07:40:16;15.25;;;2.45;;
72559;SDS011;62987;52.382;9.752;2023-12-20T07:42:45;8.57;;;1.98;;
72559;SDS011;62987;52.382;9.752;2023-12-20T07:45:14;13.32;;;2.53;;
72559;SDS011;62987;52.382;9.752;2023-12-20T07:47:44;6.75;;;1.60;;
72559;SDS011;62987;52.382;9.752;2023-12-20T07:50:23;15.88;;;2.67;;
72559;SDS011;62987;52.382;9.752;2023-12-20T07:54:10;8.15;;;1.85;;
72559;SDS011;62987;52.382;9.752;2023-12-20T07:56:50;9.48;;;2.00;;
72559;SDS011;62987;52.382;9.752;2023-12-20T07:59:27;8.70;;;1.88;;
72559;SDS011;62987;52.382;9.752;2023-12-20T08:01:59;6.90;;;1.73;;
72559;SDS011;62987;52.382;9.752;2023-12-20T08:04:28;10.05;;;1.75;;
72559;SDS011;62987;52.382;9.752;2023-12-20T08:07:00;8.82;;;2.20;;
72559;SDS011;62987;52.382;9.752;2023-12-20T08:09:28;7.45;;;2.17;;
72559;SDS011;62987;52.382;9.752;2023-12-20T08:12:19;8.57;;;2.83;;
72559;SDS011;62987;52.382;9.752;2023-12-20T08:14:48;8.30;;;2.40;;
72559;SDS011;62987;52.382;9.752;2023-12-20T08:17:16;5.70;;;1.98;;
72559;SDS011;62987;52.382;9.752;2023-12-20T08:19:45;8.82;;;2.80;;
72559;SDS011;62987;52.382;9.752;2023-12-20T08:22:15;11.27;;;3.15;;
72559;SDS011;62987;52.382;9.752;2023-12-20T08:24:43;13.75;;;2.47;;
72559;SDS011;62987;52.382;9.752;2023-12-20T08:27:12;6.30;;;2.50;;
72559;SDS011;62987;52.382;9.752;2023-12-20T08:29:45;10.02;;;2.78;;
72559;SDS011;62987;52.382;9.752;2023-12-20T08:32:14;7.10;;;2.00;;
72559;SDS011;62987;52.382;9.752;2023-12-20T08:34:42;8.52;;;2.20;;
72559;SDS011;62987;52.382;9.752;2023-12-20T08:37:11;7.68;;;1.35;;
72559;SDS011;62987;52.382;9.752;2023-12-20T08:39:39;5.97;;;1.77;;
72559;SDS011;62987;52.382;9.752;2023-12-20T08:42:11;4.82;;;1.65;;
72559;SDS011;62987;52.382;9.752;2023-12-20T08:44:40;7.80;;;1.95;;
72559;SDS011;62987;52.382;9.752;2023-12-20T08:47:09;10.95;;;1.90;;
72559;SDS011;62987;52.382;9.752;2023-12-20T08:49:40;6.95;;;2.30;;
72559;SDS011;62987;52.382;9.752;2023-12-20T08:52:08;8.07;;;2.15;;
72559;SDS011;62987;52.382;9.752;2023-12-20T08:54:37;6.57;;;2.10;;
72559;SDS011;62987;52.382;9.752;2023-12-20T08:57:05;4.68;;;2.10;;
72559;SDS011;62987;52.382;9.752;2023-12-20T08:59:34;7.85;;;1.77;;
72559;SDS011;62987;52.382;9.752;2023-12-20T09:02:02;12.75;;;2.58;;
72559;SDS011;62987;52.382;9.752;2023-12-20T09:04:32;7.55;;;1.95;;
72559;SDS011;62987;52.382;9.752;2023-12-20T09:07:01;8.05;;;1.80;;
72559;SDS011;62987;52.382;9.752;2023-12-20T09:09:29;8.57;;;1.40;;
72559;SDS011;62987;52.382;9.752;2023-12-20T09:11:59;6.68;;;1.73;;
72559;SDS011;62987;52.382;9.752;2023-12-20T09:14:28;3.88;;;1.75;;
72559;SDS011;62987;52.382;9.752;2023-12-20T09:16:56;3.13;;;1.27;;
72559;SDS011;62987;52.382;9.752;2023-12-20T09:19:25;7.22;;;2.05;;
72559;SDS011;62987;52.382;9.752;2023-12-20T09:21:55;6.05;;;1.45;;
72559;SDS011;62987;52.382;9.752;2023-12-20T09:24:24;4.22;;;1.55;;
72559;SDS011;62987;52.382;9.752;2023-12-20T09:26:55;6.70;;;2.22;;
72559;SDS011;62987;52.382;9.752;2023-12-20T09:29:24;6.90;;;1.80;;
72559;SDS011;62987;52.382;9.752;2023-12-20T09:31:52;6.18;;;1.90;;
72559;SDS011;62987;52.382;9.752;2023-12-20T09:34:21;6.03;;;1.83;;
72559;SDS011;62987;52.382;9.752;2023-12-20T09:36:49;6.20;;;2.03;;
72559;SDS011;62987;52.382;9.752;2023-12-20T09:39:19;12.40;;;2.35;;
72559;SDS011;62987;52.382;9.752;2023-12-20T09:41:51;8.60;;;3.03;;
72559;SDS011;62987;52.382;9.752;2023-12-20T09:44:27;3.75;;;1.77;;
72559;SDS011;62987;52.382;9.752;2023-12-20T09:46:57;7.43;;;1.77;;
72559;SDS011;62987;52.382;9.752;2023-12-20T09:49:25;7.93;;;2.25;;
72559;SDS011;62987;52.382;9.752;2023-12-20T09:51:56;11.98;;;1.80;;
72559;SDS011;62987;52.382;9.752;2023-12-20T09:55:05;5.50;;;1.23;;
72559;SDS011;62987;52.382;9.752;2023-12-20T09:57:36;8.40;;;1.98;;
72559;SDS011;62987;52.382;9.752;2023-12-20T10:00:05;5.20;;;1.98;;
72559;SDS011;62987;52.382;9.752;2023-12-20T10:05:10;9.18;;;2.15;;
72559;SDS011;62987;52.382;9.752;2023-12-20T10:07:49;5.82;;;2.58;;
72559;SDS011;62987;52.382;9.752;2023-12-20T10:10:20;8.00;;;2.50;;
72559;SDS011;62987;52.382;9.752;2023-12-20T10:13:01;6.38;;;1.02;;
72559;SDS011;62987;52.382;9.752;2023-12-20T10:15:32;6.70;;;1.42;;
72559;SDS011;62987;52.382;9.752;2023-12-20T10:18:01;5.40;;;1.20;;
72559;SDS011;62987;52.382;9.752;2023-12-20T10:20:30;5.20;;;1.63;;
72559;SDS011;62987;52.382;9.752;2023-12-20T10:22:59;9.80;;;2.33;;
72559;SDS011;62987;52.382;9.752;2023-12-20T10:25:29;5.40;;;1.85;;
72559;SDS011;62987;52.382;9.752;2023-12-20T10:28:09;11.38;;;2.35;;
72559;SDS011;62987;52.382;9.752;2023-12-20T10:30:40;8.95;;;2.05;;
72559;SDS011;62987;52.382;9.752;2023-12-20T10:33:10;4.68;;;1.52;;
72559;SDS011;62987;52.382;9.752;2023-12-20T10:35:39;5.15;;;0.95;;
72559;SDS011;62987;52.382;9.752;2023-12-20T10:38:13;11.63;;;2.45;;
72559;SDS011;62987;52.382;9.752;2023-12-20T10:40:44;5.75;;;1.48;;
72559;SDS011;62987;52.382;9.752;2023-12-20T10:43:14;7.38;;;2.05;;
72559;SDS011;62987;52.382;9.752;2023-12-20T10:45:43;10.35;;;2.75;;
72559;SDS011;62987;52.382;9.752;2023-12-20T10:48:11;7.57;;;1.85;;
72559;SDS011;62987;52.382;9.752;2023-12-20T10:50:40;10.57;;;2.40;;
72559;SDS011;62987;52.382;9.752;2023-12-20T10:53:09;4.70;;;1.58;;
72559;SDS011;62987;52.382;9.752;2023-12-20T10:55:41;6.40;;;1.50;;
72559;SDS011;62987;52.382;9.752;2023-12-20T10:58:12;3.30;;;1.52;;
72559;SDS011;62987;52.382;9.752;2023-12-20T11:00:42;9.20;;;2.22;;
72559;SDS011;62987;52.382;9.752;2023-12-20T11:03:14;6.55;;;2.55;;
72559;SDS011;62987;52.382;9.752;2023-12-20T11:05:46;6.15;;;1.80;;
72559;SDS011;62987;52.382;9.752;2023-12-20T11:08:22;5.65;;;1.92;;
72559;SDS011;62987;52.382;9.752;2023-12-20T11:10:58;9.00;;;2.55;;
72559;SDS011;62987;52.382;9.752;2023-12-20T11:13:34;5.53;;;1.27;;
72559;SDS011;62987;52.382;9.752;2023-12-20T11:16:06;7.78;;;1.95;;
72559;SDS011;62987;52.382;9.752;2023-12-20T11:18:35;7.75;;;2.05;;
72559;SDS011;62987;52.382;9.752;2023-12-20T11:21:04;4.50;;;1.30;;
72559;SDS011;62987;52.382;9.752;2023-12-20T11:23:33;4.43;;;2.20;;
72559;SDS011;62987;52.382;9.752;2023-12-20T11:26:02;2.83;;;1.13;;
72559;SDS011;62987;52.382;9.752;2023-12-20T11:28:32;5.45;;;1.88;;
72559;SDS011;62987;52.382;9.752;2023-12-20T11:31:01;6.63;;;1.98;;
72559;SDS011;62987;52.382;9.752;2023-12-20T11:33:31;6.57;;;1.85;;
72559;SDS011;62987;52.382;9.752;2023-12-20T11:36:12;4.13;;;1.42;;
72559;SDS011;62987;52.382;9.752;2023-12-20T11:38:49;6.07;;;1.98;;
72559;SDS011;62987;52.382;9.752;2023-12-20T11:41:24;8.15;;;2.53;;
72559;SDS011;62987;52.382;9.752;2023-12-20T11:43:55;9.10;;;2.83;;
72559;SDS011;62987;52.382;9.752;2023-12-20T11:46:24;14.15;;;2.95;;
72559;SDS011;62987;52.382;9.752;2023-12-20T11:48:54;7.75;;;2.53;;
72559;SDS011;62987;52.382;9.752;2023-12-20T11:51:22;2.78;;;1.23;;
72559;SDS011;62987;52.382;9.752;2023-12-20T11:53:54;3.83;;;1.50;;
72559;SDS011;62987;52.382;9.752;2023-12-20T11:56:23;4.85;;;1.25;;
72559;SDS011;62987;52.382;9.752;2023-12-20T11:58:51;3.03;;;0.63;;
72559;SDS011;62987;52.382;9.752;2023-12-20T12:01:24;3.10;;;0.80;;
72559;SDS011;62987;52.382;9.752;2023-12-20T12:04:02;5.03;;;1.00;;
72559;SDS011;62987;52.382;9.752;2023-12-20T12:06:31;3.42;;;0.90;;
72559;SDS011;62987;52.382;9.752;2023-12-20T12:09:00;2.67;;;0.65;;
72559;SDS011;62987;52.382;9.752;2023-12-20T12:11:30;3.58;;;0.80;;
72559;SDS011;62987;52.382;9.752;2023-12-20T12:13:59;0.93;;;0.35;;
72559;SDS011;62987;52.382;9.752;2023-12-20T12:16:29;1.42;;;0.60;;
72559;SDS011;62987;52.382;9.752;2023-12-20T12:18:58;2.95;;;0.70;;
72559;SDS011;62987;52.382;9.752;2023-12-20T12:21:27;4.40;;;0.90;;
72559;SDS011;62987;52.382;9.752;2023-12-20T12:24:06;4.20;;;0.93;;
72559;SDS011;62987;52.382;9.752;2023-12-20T12:26:35;1.63;;;0.30;;
72559;SDS011;62987;52.382;9.752;2023-12-20T12:29:05;1.50;;;0.63;;
72559;SDS011;62987;52.382;9.752;2023-12-20T12:31:37;1.98;;;0.75;;
72559;SDS011;62987;52.382;9.752;2023-12-20T12:34:07;2.50;;;0.80;;
72559;SDS011;62987;52.382;9.752;2023-12-20T12:36:36;2.65;;;0.50;;
72559;SDS011;62987;52.382;9.752;2023-12-20T12:39:05;2.45;;;0.30;;
72559;SDS011;62987;52.382;9.752;2023-12-20T12:41:33;1.98;;;0.60;;
72559;SDS011;62987;52.382;9.752;2023-12-20T12:44:01;1.40;;;0.35;;
72559;SDS011;62987;52.382;9.752;2023-12-20T12:46:44;1.65;;;0.80;;
72559;SDS011;62987;52.382;9.752;2023-12-20T12:49:13;2.42;;;0.57;;
72559;SDS011;62987;52.382;9.752;2023-12-20T12:51:42;1.58;;;0.52;;
72559;SDS011;62987;52.382;9.752;2023-12-20T12:54:11;2.00;;;0.65;;
72559;SDS011;62987;52.382;9.752;2023-12-20T12:56:42;2.10;;;0.47;;
72559;SDS011;62987;52.382;9.752;2023-12-20T12:59:11;5.93;;;0.95;;
72559;SDS011;62987;52.382;9.752;2023-12-20T13:01:39;1.70;;;0.52;;
72559;SDS011;62987;52.382;9.752;2023-12-20T13:04:09;1.80;;;0.70;;
72559;SDS011;62987;52.382;9.752;2023-12-20T13:06:39;2.80;;;0.45;;
72559;SDS011;62987;52.382;9.752;2023-12-20T13:09:09;4.20;;;1.13;;
72559;SDS011;62987;52.382;9.752;2023-12-20T13:11:37;1.52;;;0.60;;
72559;SDS011;62987;52.382;9.752;2023-12-20T13:14:06;3.28;;;0.93;;
72559;SDS011;62987;52.382;9.752;2023-12-20T13:16:37;2.50;;;0.43;;
72559;SDS011;62987;52.382;9.752;2023-12-20T13:19:06;1.27;;;0.43;;
72559;SDS011;62987;52.382;9.752;2023-12-20T13:21:36;6.00;;;0.85;;
72559;SDS011;62987;52.382;9.752;2023-12-20T13:24:05;3.20;;;0.68;;
72559;SDS011;62987;52.382;9.752;2023-12-20T13:26:33;5.13;;;0.73;;
72559;SDS011;62987;52.382;9.752;2023-12-20T13:29:03;1.65;;;0.63;;
72559;SDS011;62987;52.382;9.752;2023-12-20T13:31:31;4.72;;;0.80;;
72559;SDS011;62987;52.382;9.752;2023-12-20T13:34:00;2.03;;;0.80;;
72559;SDS011;62987;52.382;9.752;2023-12-20T13:36:29;4.18;;;1.13;;
72559;SDS011;62987;52.382;9.752;2023-12-20T13:38:59;2.38;;;0.90;;
72559;SDS011;62987;52.382;9.752;2023-12-20T13:41:28;17.75;;;3.75;;
72559;SDS011;62987;52.382;9.752;2023-12-20T13:43:57;8.43;;;2.28;;
72559;SDS011;62987;52.382;9.752;2023-12-20T13:46:25;8.07;;;1.52;;
72559;SDS011;62987;52.382;9.752;2023-12-20T13:48:54;5.75;;;1.80;;
72559;SDS011;62987;52.382;9.752;2023-12-20T13:51:23;3.40;;;0.80;;
72559;SDS011;62987;52.382;9.752;2023-12-20T13:53:52;2.53;;;0.55;;
72559;SDS011;62987;52.382;9.752;2023-12-20T13:56:22;1.85;;;0.60;;
72559;SDS011;62987;52.382;9.752;2023-12-20T13:58:50;3.20;;;1.00;;
72559;SDS011;62987;52.382;9.752;2023-12-20T14:01:19;1.42;;;0.55;;
72559;SDS011;62987;52.382;9.752;2023-12-20T14:03:47;2.05;;;0.95;;
72559;SDS011;62987;52.382;9.752;2023-12-20T14:06:15;6.80;;;0.88;;
72559;SDS011;62987;52.382;9.752;2023-12-20T14:08:44;2.47;;;0.73;;
72559;SDS011;62987;52.382;9.752;2023-12-20T14:11:13;3.33;;;1.02;;
72559;SDS011;62987;52.382;9.752;2023-12-20T14:13:44;2.58;;;0.98;;
72559;SDS011;62987;52.382;9.752;2023-12-20T14:16:12;1.48;;;0.70;;
72559;SDS011;62987;52.382;9.752;2023-12-20T14:18:41;1.25;;;0.50;;
72559;SDS011;62987;52.382;9.752;2023-12-20T14:21:09;3.28;;;1.10;;
72559;SDS011;62987;52.382;9.752;2023-12-20T14:23:38;4.80;;;0.90;;
72559;SDS011;62987;52.382;9.752;2023-12-20T14:26:09;2.78;;;1.10;;
72559;SDS011;62987;52.382;9.752;2023-12-20T14:28:41;2.05;;;1.40;;
72559;SDS011;62987;52.382;9.752;2023-12-20T14:31:12;2.92;;;1.05;;
72559;SDS011;62987;52.382;9.752;2023-12-20T14:33:40;2.13;;;0.80;;
72559;SDS011;62987;52.382;9.752;2023-12-20T14:36:09;1.65;;;0.82;;
72559;SDS011;62987;52.382;9.752;2023-12-20T14:38:38;6.63;;;1.30;;
72559;SDS011;62987;52.382;9.752;2023-12-20T14:41:06;5.63;;;1.10;;
72559;SDS011;62987;52.382;9.752;2023-12-20T14:43:35;3.72;;;1.17;;
72559;SDS011;62987;52.382;9.752;2023-12-20T14:46:04;5.28;;;0.95;;
72559;SDS011;62987;52.382;9.752;2023-12-20T14:48:34;4.93;;;1.30;;
72559;SDS011;62987;52.382;9.752;2023-12-20T14:51:03;6.28;;;1.10;;
72559;SDS011;62987;52.382;9.752;2023-12-20T14:53:31;3.00;;;0.73;;
72559;SDS011;62987;52.382;9.752;2023-12-20T14:56:03;6.35;;;1.30;;
72559;SDS011;62987;52.382;9.752;2023-12-20T14:58:32;3.10;;;1.50;;
72559;SDS011;62987;52.382;9.752;2023-12-20T15:01:01;2.72;;;0.80;;
72559;SDS011;62987;52.382;9.752;2023-12-20T15:05:29;4.50;;;1.40;;
72559;SDS011;62987;52.382;9.752;2023-12-20T15:07:58;5.20;;;0.98;;